createdAt,value
2017-06-12T00:01:45.128Z,99.90
2017-06-12T00:04:13.289Z,99.90
2017-06-12T00:06:41.581Z,99.90
2017-06-12T00:09:09.809Z,99.90
2017-06-12T00:11:38.036Z,99.90
2017-06-12T00:14:06.211Z,99.90
2017-06-12T00:16:34.403Z,99.90
2017-06-12T00:19:02.525Z,99.90
2017-06-12T00:21:31.602Z,99.90
2017-06-12T00:23:59.980Z,99.90
2017-06-12T00:26:28.975Z,99.90
2017-06-12T00:28:57.149Z,99.90
2017-06-12T00:31:25.427Z,99.90
2017-06-12T00:33:53.568Z,99.90
2017-06-12T00:36:21.776Z,99.90
2017-06-12T00:38:50.874Z,99.90
2017-06-12T00:41:19.329Z,99.60
2017-06-12T00:43:47.633Z,99.80
2017-06-12T00:46:16.599Z,99.40
2017-06-12T00:48:45.462Z,99.30
2017-06-12T00:51:13.694Z,99.20
2017-06-12T00:53:42.077Z,99.20
2017-06-12T00:56:10.207Z,99.20
2017-06-12T00:58:39.247Z,98.50
2017-06-12T01:01:07.423Z,98.60
2017-06-12T01:03:35.562Z,98.60
2017-06-12T01:06:03.764Z,98.50
2017-06-12T01:08:32.041Z,98.40
2017-06-12T01:11:00.202Z,98.50
2017-06-12T01:13:28.449Z,98.30
2017-06-12T01:15:56.641Z,98.40
2017-06-12T01:18:24.783Z,98.10
2017-06-12T01:20:52.914Z,98.00
2017-06-12T01:23:21.245Z,97.80
2017-06-12T01:25:50.347Z,97.70
2017-06-12T01:28:18.515Z,97.60
2017-06-12T01:30:47.387Z,97.80
2017-06-12T01:33:16.659Z,97.60
2017-06-12T01:35:44.951Z,97.50
2017-06-12T01:38:13.287Z,97.30
2017-06-12T01:40:41.514Z,97.30
2017-06-12T01:43:09.785Z,97.00
2017-06-12T01:45:38.036Z,97.10
2017-06-12T01:48:06.277Z,97.00
2017-06-12T01:50:34.551Z,96.90
2017-06-12T01:53:02.726Z,96.80
2017-06-12T01:55:30.901Z,96.90
2017-06-12T01:57:59.895Z,96.10
2017-06-12T02:00:28.989Z,96.40
2017-06-12T02:02:57.146Z,96.00
2017-06-12T02:05:25.388Z,95.90
2017-06-12T02:07:54.205Z,95.80
2017-06-12T02:10:22.564Z,95.80
2017-06-12T02:12:50.759Z,96.00
2017-06-12T02:15:19.039Z,96.20
2017-06-12T02:17:48.076Z,96.20
2017-06-12T02:20:16.314Z,96.10
2017-06-12T02:22:44.481Z,96.20
2017-06-12T02:25:12.761Z,96.20
2017-06-12T02:27:42.059Z,96.90
2017-06-12T02:30:10.284Z,96.60
2017-06-12T02:32:38.566Z,96.90
2017-06-12T02:35:06.789Z,96.90
2017-06-12T02:37:34.961Z,96.90
2017-06-12T02:40:03.962Z,96.30
2017-06-12T02:42:32.949Z,96.30
2017-06-12T02:45:02.049Z,96.30
2017-06-12T02:47:30.177Z,96.00
2017-06-12T02:49:58.502Z,95.80
2017-06-12T02:52:26.678Z,95.30
2017-06-12T02:54:54.950Z,95.30
2017-06-12T02:57:23.124Z,95.60
2017-06-12T02:59:51.297Z,96.10
2017-06-12T03:02:19.473Z,96.10
2017-06-12T03:04:47.673Z,96.00
2017-06-12T03:07:15.984Z,96.10
2017-06-12T03:09:44.305Z,96.20
2017-06-12T03:12:13.296Z,96.10
2017-06-12T03:14:41.734Z,96.10
2017-06-12T03:17:09.851Z,96.40
2017-06-12T03:19:38.064Z,96.00
2017-06-12T03:22:06.298Z,95.90
2017-06-12T03:24:34.521Z,96.00
2017-06-12T03:27:02.703Z,95.80
2017-06-12T03:29:30.847Z,95.90
2017-06-12T03:31:58.981Z,95.90
2017-06-12T03:34:27.124Z,95.90
2017-06-12T03:36:55.292Z,95.60
2017-06-12T03:39:23.829Z,95.50
2017-06-12T03:41:52.005Z,95.50
2017-06-12T03:44:20.237Z,95.30
2017-06-12T03:46:48.459Z,95.00
2017-06-12T03:49:16.586Z,95.00
2017-06-12T03:51:44.756Z,95.20
2017-06-12T03:54:12.982Z,95.10
2017-06-12T03:56:41.200Z,95.50
2017-06-12T03:59:09.375Z,95.40
2017-06-12T04:01:37.547Z,95.70
2017-06-12T04:04:05.684Z,95.90
2017-06-12T04:06:33.853Z,96.00
2017-06-12T04:09:02.027Z,95.80
2017-06-12T04:11:30.162Z,95.90
2017-06-12T04:13:58.320Z,95.20
2017-06-12T04:16:26.648Z,95.50
2017-06-12T04:18:54.825Z,95.20
2017-06-12T04:21:23.099Z,94.20
2017-06-12T04:23:51.309Z,93.90
2017-06-12T04:26:19.469Z,93.60
2017-06-12T04:28:47.625Z,93.00
2017-06-12T04:31:15.774Z,93.10
2017-06-12T04:33:43.927Z,93.10
2017-06-12T04:36:12.082Z,93.20
2017-06-12T04:38:40.231Z,93.10
2017-06-12T04:41:08.370Z,93.10
2017-06-12T04:43:36.542Z,93.10
2017-06-12T04:46:04.737Z,93.40
2017-06-12T04:48:32.959Z,93.50
2017-06-12T04:51:01.122Z,94.00
2017-06-12T04:53:29.305Z,93.70
2017-06-12T04:55:57.497Z,93.50
2017-06-12T04:58:25.670Z,93.70
2017-06-12T05:00:53.882Z,93.80
2017-06-12T05:03:22.155Z,93.90
2017-06-12T05:05:50.327Z,93.90
2017-06-12T05:08:18.551Z,93.50
2017-06-12T05:10:46.774Z,93.40
2017-06-12T05:13:15.006Z,92.90
2017-06-12T05:15:43.149Z,93.40
2017-06-12T05:18:12.822Z,92.90
2017-06-12T05:20:41.234Z,93.30
2017-06-12T05:23:09.881Z,93.20
2017-06-12T05:25:38.371Z,93.20
2017-06-12T05:28:08.010Z,92.90
2017-06-12T05:30:36.142Z,92.80
2017-06-12T05:33:04.260Z,92.50
2017-06-12T05:35:32.411Z,92.20
2017-06-12T05:38:00.536Z,91.50
2017-06-12T05:40:28.682Z,91.50
2017-06-12T05:42:56.851Z,91.70
2017-06-12T05:45:24.964Z,92.30
2017-06-12T05:47:53.109Z,91.70
2017-06-12T05:50:21.289Z,91.20
2017-06-12T05:52:49.495Z,91.10
2017-06-12T05:55:17.633Z,90.90
2017-06-12T05:57:45.926Z,91.10
2017-06-12T06:00:14.063Z,90.80
2017-06-12T06:02:42.196Z,90.70
2017-06-12T06:05:10.880Z,90.50
2017-06-12T06:07:39.002Z,90.20
2017-06-12T06:10:07.159Z,90.00
2017-06-12T06:12:35.324Z,89.00
2017-06-12T06:15:03.457Z,89.90
2017-06-12T06:17:31.609Z,89.50
2017-06-12T06:19:59.777Z,89.10
2017-06-12T06:22:27.902Z,89.50
2017-06-12T06:24:56.023Z,88.50
2017-06-12T06:27:24.191Z,87.60
2017-06-12T06:29:53.910Z,87.10
2017-06-12T06:32:22.177Z,86.40
2017-06-12T06:34:50.352Z,86.40
2017-06-12T06:37:18.493Z,88.30
2017-06-12T06:39:46.747Z,87.10
2017-06-12T06:42:14.932Z,85.70
2017-06-12T06:44:43.065Z,84.00
2017-06-12T06:47:11.183Z,83.50
2017-06-12T06:49:39.362Z,83.00
2017-06-12T06:52:07.505Z,84.10
2017-06-12T06:54:35.644Z,83.00
2017-06-12T06:57:04.564Z,78.70
2017-06-12T06:59:33.969Z,79.60
2017-06-12T07:02:02.085Z,79.60
2017-06-12T07:04:30.921Z,80.50
2017-06-12T07:06:59.167Z,79.80
2017-06-12T07:09:28.025Z,80.10
2017-06-12T07:11:56.243Z,79.90
2017-06-12T07:14:24.420Z,80.20
2017-06-12T07:16:52.564Z,80.40
2017-06-12T07:19:20.810Z,78.50
2017-06-12T07:21:48.942Z,78.00
2017-06-12T07:24:17.082Z,77.80
2017-06-12T07:26:45.373Z,78.00
2017-06-12T07:29:13.500Z,77.30
2017-06-12T07:31:41.641Z,77.10
2017-06-12T07:34:10.598Z,74.90
2017-06-12T07:36:38.786Z,74.90
2017-06-12T07:39:06.985Z,74.80
2017-06-12T07:41:35.199Z,73.30
2017-06-12T07:44:03.849Z,74.30
2017-06-12T07:46:31.990Z,74.20
2017-06-12T07:49:00.969Z,71.90
2017-06-12T07:51:29.854Z,71.00
2017-06-12T07:53:57.995Z,70.80
2017-06-12T07:56:26.162Z,70.30
2017-06-12T07:58:54.307Z,70.40
2017-06-12T08:01:22.558Z,64.80
2017-06-12T08:03:50.734Z,63.00
2017-06-12T08:06:18.855Z,66.00
2017-06-12T08:08:46.987Z,65.20
2017-06-12T08:11:15.170Z,63.80
2017-06-12T08:13:43.279Z,63.10
2017-06-12T08:16:13.261Z,61.40
2017-06-12T08:18:41.458Z,61.30
2017-06-12T08:21:10.428Z,61.90
2017-06-12T08:23:38.565Z,59.20
2017-06-12T08:26:06.847Z,58.20
2017-06-12T08:28:34.976Z,59.00
2017-06-12T08:31:03.088Z,58.80
2017-06-12T08:33:31.261Z,60.80
2017-06-12T08:35:59.423Z,63.10
2017-06-12T08:38:27.597Z,64.70
2017-06-12T08:40:55.795Z,64.50
2017-06-12T08:43:23.920Z,65.30
2017-06-12T08:45:52.036Z,63.50
2017-06-12T08:48:20.219Z,63.30
2017-06-12T08:50:48.380Z,61.40
2017-06-12T08:53:17.756Z,63.10
2017-06-12T08:55:45.924Z,59.80
2017-06-12T08:58:14.086Z,62.60
2017-06-12T09:00:42.976Z,70.40
2017-06-12T09:03:11.160Z,70.40
2017-06-12T09:05:39.281Z,72.60
2017-06-12T09:08:07.407Z,72.80
2017-06-12T09:10:35.693Z,74.60
2017-06-12T09:13:03.822Z,74.70
2017-06-12T09:15:31.952Z,75.60
2017-06-12T09:18:00.116Z,75.30
2017-06-12T09:20:28.262Z,76.30
2017-06-12T09:22:57.589Z,73.40
2017-06-12T09:25:25.829Z,73.30
2017-06-12T09:27:54.994Z,69.60
2017-06-12T09:30:23.146Z,69.40
2017-06-12T09:32:51.313Z,66.50
2017-06-12T09:35:19.440Z,61.80
2017-06-12T09:37:47.561Z,59.50
2017-06-12T09:40:15.723Z,57.90
2017-06-12T09:42:43.903Z,56.70
2017-06-12T09:45:12.038Z,56.60
2017-06-12T09:47:40.310Z,57.50
2017-06-12T09:50:08.523Z,55.70
2017-06-12T09:52:36.680Z,53.70
2017-06-12T09:55:04.855Z,53.70
2017-06-12T09:57:33.427Z,54.20
2017-06-12T10:00:01.573Z,53.20
2017-06-12T10:02:29.730Z,53.00
2017-06-12T10:04:58.482Z,53.40
2017-06-12T10:07:26.750Z,51.90
2017-06-12T10:09:54.914Z,51.20
2017-06-12T10:12:23.074Z,51.00
2017-06-12T10:14:51.812Z,50.10
2017-06-12T10:17:19.971Z,49.90
2017-06-12T10:19:48.106Z,48.60
2017-06-12T10:22:16.941Z,48.50
2017-06-12T10:24:45.162Z,48.60
2017-06-12T10:27:13.480Z,48.70
2017-06-12T10:29:41.612Z,47.90
2017-06-12T10:32:09.893Z,49.00
2017-06-12T10:34:38.068Z,48.50
2017-06-12T10:37:06.257Z,47.90
2017-06-12T10:39:34.480Z,47.70
2017-06-12T10:42:02.617Z,49.70
2017-06-12T10:44:30.767Z,50.90
2017-06-12T10:46:59.062Z,51.60
2017-06-12T10:49:27.220Z,53.30
2017-06-12T10:51:55.409Z,53.90
2017-06-12T10:54:23.595Z,53.20
2017-06-12T10:56:52.215Z,52.80
2017-06-12T10:59:20.466Z,53.60
2017-06-12T11:01:48.655Z,55.30
2017-06-12T11:04:17.480Z,56.90
2017-06-12T11:06:45.739Z,57.80
2017-06-12T11:09:13.915Z,58.40
2017-06-12T11:11:42.031Z,59.10
2017-06-12T11:14:10.725Z,59.50
2017-06-12T11:16:39.541Z,59.90
2017-06-12T11:19:07.726Z,59.20
2017-06-12T11:21:41.480Z,59.20
2017-06-12T11:24:09.636Z,58.00
2017-06-12T11:26:44.292Z,56.40
2017-06-12T11:29:12.427Z,56.30
2017-06-12T11:31:40.658Z,54.40
2017-06-12T11:34:08.835Z,54.90
2017-06-12T11:36:36.985Z,54.70
2017-06-12T11:39:06.223Z,53.50
2017-06-12T11:41:35.287Z,52.50
2017-06-12T11:44:03.485Z,52.40
2017-06-12T11:46:31.654Z,52.80
2017-06-12T11:49:00.016Z,52.40
2017-06-12T11:51:28.230Z,51.80
2017-06-12T11:53:56.400Z,52.50
2017-06-12T11:56:24.628Z,52.00
2017-06-12T11:58:52.795Z,52.80
2017-06-12T12:01:21.066Z,52.40
2017-06-12T12:03:49.245Z,51.50
2017-06-12T12:06:17.380Z,50.10
2017-06-12T12:08:45.541Z,50.80
2017-06-12T12:11:14.304Z,52.10
2017-06-12T12:13:42.465Z,51.80
2017-06-12T12:16:10.627Z,51.50
2017-06-12T12:18:38.911Z,51.90
2017-06-12T12:21:07.080Z,52.20
2017-06-12T12:23:35.816Z,52.70
2017-06-12T12:26:04.022Z,53.40
2017-06-12T12:28:32.140Z,54.50
2017-06-12T12:31:01.053Z,56.00
2017-06-12T12:33:29.241Z,56.20
2017-06-12T12:35:58.141Z,54.20
2017-06-12T12:38:26.285Z,54.10
2017-06-12T12:40:54.445Z,53.90
2017-06-12T12:43:22.576Z,53.50
2017-06-12T12:45:50.698Z,53.20
2017-06-12T12:48:20.148Z,55.00
2017-06-12T12:50:48.489Z,55.10
2017-06-12T12:53:16.617Z,55.80
2017-06-12T12:55:44.791Z,56.10
2017-06-12T12:58:12.966Z,56.00
2017-06-12T13:00:41.132Z,57.00
2017-06-12T13:03:09.388Z,57.50
2017-06-12T13:05:38.189Z,58.30
2017-06-12T13:08:06.535Z,58.60
2017-06-12T13:10:35.526Z,59.70
2017-06-12T13:13:03.660Z,59.50
2017-06-12T13:15:31.794Z,59.60
2017-06-12T13:18:00.815Z,60.90
2017-06-12T13:20:28.983Z,60.80
2017-06-12T13:22:57.109Z,61.50
2017-06-12T13:25:25.339Z,61.50
2017-06-12T13:27:53.508Z,61.10
2017-06-12T13:30:21.667Z,61.40
2017-06-12T13:32:49.863Z,60.70
2017-06-12T13:35:17.982Z,60.60
2017-06-12T13:37:46.181Z,60.30
2017-06-12T13:40:14.457Z,59.80
2017-06-12T13:42:42.611Z,60.80
2017-06-12T13:45:10.881Z,61.40
2017-06-12T13:47:39.874Z,60.00
2017-06-12T13:50:08.018Z,59.90
2017-06-12T13:52:36.192Z,59.30
2017-06-12T13:55:04.360Z,59.40
2017-06-12T13:57:32.594Z,58.30
2017-06-12T14:00:00.717Z,58.30
2017-06-12T14:02:28.974Z,57.50
2017-06-12T14:04:57.330Z,58.30
2017-06-12T14:07:25.591Z,58.30
2017-06-12T14:09:53.783Z,59.50
2017-06-12T14:12:21.948Z,60.10
2017-06-12T14:14:50.119Z,61.10
2017-06-12T14:17:18.342Z,60.90
2017-06-12T14:19:46.618Z,60.60
2017-06-12T14:22:14.767Z,60.00
2017-06-12T14:24:43.097Z,60.90
2017-06-12T14:27:11.267Z,60.70
2017-06-12T14:29:39.441Z,60.20
2017-06-12T14:32:07.621Z,59.90
2017-06-12T14:34:35.895Z,59.80
2017-06-12T14:37:04.049Z,59.80
2017-06-12T14:39:32.228Z,60.00
2017-06-12T14:42:00.355Z,60.90
2017-06-12T14:44:28.594Z,61.20
2017-06-12T14:46:56.910Z,60.50
2017-06-12T14:49:25.155Z,60.80
2017-06-12T14:51:53.330Z,63.00
2017-06-12T14:54:21.498Z,60.20
2017-06-12T14:56:49.628Z,61.50
2017-06-12T14:59:17.855Z,61.70
2017-06-12T15:01:46.363Z,61.40
2017-06-12T15:04:14.534Z,62.00
2017-06-12T15:06:42.660Z,60.80
2017-06-12T15:09:10.846Z,61.90
2017-06-12T15:11:38.971Z,62.50
2017-06-12T15:14:07.697Z,62.00
2017-06-12T15:16:35.936Z,62.70
2017-06-12T15:19:04.214Z,62.30
2017-06-12T15:21:33.139Z,59.40
2017-06-12T15:24:01.500Z,59.40
2017-06-12T15:26:29.736Z,59.60
2017-06-12T15:28:57.902Z,59.80
2017-06-12T15:31:26.144Z,59.00
2017-06-12T15:33:54.306Z,59.10
2017-06-12T15:36:22.447Z,59.50
2017-06-12T15:38:50.659Z,59.00
2017-06-12T15:41:18.811Z,58.50
2017-06-12T15:43:47.016Z,58.70
2017-06-12T15:46:15.218Z,59.00
2017-06-12T15:48:43.441Z,58.70
2017-06-12T15:51:11.665Z,58.50
2017-06-12T15:53:39.847Z,59.00
2017-06-12T15:56:38.838Z,59.30
2017-06-12T16:00:10.614Z,60.10
2017-06-12T16:02:40.428Z,59.80
2017-06-12T16:05:08.600Z,60.50
2017-06-12T16:07:36.728Z,59.50
2017-06-12T16:10:04.869Z,59.80
2017-06-12T16:12:33.024Z,60.50
2017-06-12T16:15:01.150Z,60.10
2017-06-12T16:17:30.188Z,62.80
2017-06-12T16:19:58.400Z,62.70
2017-06-12T16:22:26.523Z,63.00
2017-06-12T16:24:54.647Z,63.30
2017-06-12T16:27:22.931Z,63.70
2017-06-12T16:29:51.915Z,64.60
2017-06-12T16:32:20.065Z,64.00
2017-06-12T16:34:48.294Z,64.10
2017-06-12T16:37:17.135Z,65.00
2017-06-12T16:39:45.260Z,65.40
2017-06-12T16:42:13.453Z,65.50
2017-06-12T16:44:41.661Z,65.40
2017-06-12T16:47:09.803Z,65.10
2017-06-12T16:49:38.320Z,63.90
2017-06-12T16:52:06.456Z,62.90
2017-06-12T16:54:34.603Z,62.30
2017-06-12T16:57:02.778Z,62.30
2017-06-12T16:59:30.906Z,61.30
2017-06-12T17:01:59.116Z,61.40
2017-06-12T17:04:27.314Z,60.40
2017-06-12T17:06:55.508Z,60.00
2017-06-12T17:09:23.790Z,60.40
2017-06-12T17:11:52.191Z,62.10
2017-06-12T17:14:21.009Z,61.10
2017-06-12T17:16:49.870Z,61.00
2017-06-12T17:19:18.064Z,62.20
2017-06-12T17:21:46.202Z,61.30
2017-06-12T17:24:15.466Z,61.80
2017-06-12T17:26:43.619Z,61.80
2017-06-12T17:29:11.756Z,61.60
2017-06-12T17:31:40.888Z,62.20
2017-06-12T17:34:09.071Z,62.10
2017-06-12T17:36:37.974Z,61.40
2017-06-12T17:39:07.128Z,61.40
2017-06-12T17:41:35.346Z,61.90
2017-06-12T17:44:03.476Z,61.70
2017-06-12T17:46:31.642Z,61.90
2017-06-12T17:48:59.809Z,62.20
2017-06-12T17:51:27.959Z,61.60
2017-06-12T17:53:56.085Z,62.20
2017-06-12T17:56:25.197Z,61.30
2017-06-12T17:58:53.336Z,61.50
2017-06-12T18:01:21.504Z,62.10
2017-06-12T18:03:51.114Z,61.60
2017-06-12T18:06:19.294Z,63.10
2017-06-12T18:08:47.473Z,61.90
2017-06-12T18:11:16.467Z,62.00
2017-06-12T18:13:44.872Z,62.30
2017-06-12T18:16:13.096Z,62.80
2017-06-12T18:18:41.666Z,62.90
2017-06-12T18:21:09.870Z,62.50
2017-06-12T18:23:38.005Z,63.80
2017-06-12T18:26:06.416Z,63.90
2017-06-12T18:28:34.618Z,64.30
2017-06-12T18:31:03.353Z,64.00
2017-06-12T18:33:31.553Z,64.20
2017-06-12T18:35:59.714Z,64.20
2017-06-12T18:38:27.871Z,65.00
2017-06-12T18:40:57.039Z,65.20
2017-06-12T18:43:25.274Z,65.70
2017-06-12T18:45:54.449Z,65.60
2017-06-12T18:48:22.753Z,66.00
2017-06-12T18:50:50.930Z,66.50
2017-06-12T18:53:19.074Z,66.70
2017-06-12T18:55:48.138Z,66.90
2017-06-12T18:58:16.270Z,66.70
2017-06-12T19:00:44.927Z,65.70
2017-06-12T19:03:13.100Z,65.50
2017-06-12T19:05:41.250Z,65.90
2017-06-12T19:08:09.811Z,65.40
2017-06-12T19:10:38.871Z,64.50
2017-06-12T19:13:07.052Z,64.50
2017-06-12T19:15:35.306Z,64.80
2017-06-12T19:18:03.584Z,65.40
2017-06-12T19:20:31.780Z,65.90
2017-06-12T19:22:59.916Z,65.90
2017-06-12T19:25:28.315Z,66.60
2017-06-12T19:27:56.674Z,66.40
2017-06-12T19:30:26.142Z,66.60
2017-06-12T19:32:54.627Z,67.00
2017-06-12T19:35:22.901Z,67.10
2017-06-12T19:37:51.432Z,67.50
2017-06-12T19:40:20.619Z,67.80
2017-06-12T19:42:49.490Z,67.90
2017-06-12T19:45:17.649Z,67.90
2017-06-12T19:47:45.833Z,68.10
2017-06-12T19:50:13.979Z,68.10
2017-06-12T19:52:42.178Z,68.00
2017-06-12T19:55:10.344Z,68.10
2017-06-12T19:57:38.513Z,68.40
2017-06-12T20:00:06.983Z,68.40
2017-06-12T20:02:35.141Z,68.50
2017-06-12T20:05:03.921Z,68.80
2017-06-12T20:07:32.065Z,69.00
2017-06-12T20:10:01.371Z,68.70
2017-06-12T20:12:30.350Z,68.50
2017-06-12T20:14:58.773Z,69.30
2017-06-12T20:17:27.811Z,68.40
2017-06-12T20:19:56.041Z,69.10
2017-06-12T20:22:25.076Z,70.00
2017-06-12T20:24:53.247Z,69.70
2017-06-12T20:27:21.421Z,70.20
2017-06-12T20:29:50.337Z,70.20
2017-06-12T20:32:18.496Z,70.10
2017-06-12T20:34:46.661Z,70.30
2017-06-12T20:37:14.922Z,70.90
2017-06-12T20:39:43.056Z,70.90
2017-06-12T20:42:11.289Z,70.80
2017-06-12T20:44:39.571Z,71.30
2017-06-12T20:47:07.740Z,70.90
2017-06-12T20:49:36.687Z,71.60
2017-06-12T20:52:04.916Z,71.40
2017-06-12T20:54:34.365Z,71.30
2017-06-12T20:57:02.582Z,71.20
2017-06-12T20:59:30.719Z,71.90
2017-06-12T21:01:58.946Z,71.40
2017-06-12T21:04:27.179Z,71.30
2017-06-12T21:06:55.396Z,72.40
2017-06-12T21:09:23.563Z,72.40
2017-06-12T21:11:51.731Z,72.90
2017-06-12T21:14:21.495Z,72.90
2017-06-12T21:16:50.516Z,72.50
2017-06-12T21:19:18.669Z,72.80
2017-06-12T21:21:46.818Z,72.60
2017-06-12T21:24:15.065Z,72.90
2017-06-12T21:26:43.290Z,72.60
2017-06-12T21:29:11.481Z,72.50
2017-06-12T21:31:39.653Z,72.60
2017-06-12T21:34:08.019Z,72.60
2017-06-12T21:36:36.275Z,72.80
2017-06-12T21:39:04.487Z,73.00
2017-06-12T21:41:32.762Z,73.00
2017-06-12T21:44:01.015Z,73.30
2017-06-12T21:46:29.221Z,73.40
2017-06-12T21:48:57.553Z,73.40
2017-06-12T21:51:25.722Z,73.30
2017-06-12T21:53:53.914Z,72.90
2017-06-12T21:56:22.076Z,73.00
2017-06-12T21:58:50.276Z,73.00
2017-06-12T22:01:18.520Z,72.90
2017-06-12T22:03:46.679Z,72.80
2017-06-12T22:06:14.858Z,73.20
2017-06-12T22:08:43.008Z,73.60
2017-06-12T22:11:11.401Z,73.80
2017-06-12T22:13:39.596Z,74.10
2017-06-12T22:16:07.828Z,74.00
2017-06-12T22:18:35.962Z,73.50
2017-06-12T22:21:04.112Z,74.00
2017-06-12T22:23:32.292Z,74.20
2017-06-12T22:26:01.168Z,74.70
2017-06-12T22:28:29.402Z,74.90
2017-06-12T22:30:57.550Z,74.60
2017-06-12T22:33:25.772Z,74.80
2017-06-12T22:35:53.950Z,75.30
2017-06-12T22:38:22.218Z,75.50
2017-06-12T22:40:51.129Z,75.80
2017-06-12T22:43:19.277Z,75.80
2017-06-12T22:45:47.797Z,76.10
2017-06-12T22:48:15.944Z,76.00
2017-06-12T22:50:44.113Z,75.80
2017-06-12T22:53:12.267Z,76.30
2017-06-12T22:55:40.496Z,76.40
2017-06-12T22:58:08.694Z,76.70
2017-06-12T23:00:36.982Z,76.70
2017-06-12T23:03:05.871Z,76.90
2017-06-12T23:05:34.047Z,77.10
2017-06-12T23:08:02.993Z,77.60
2017-06-12T23:10:31.125Z,77.20
2017-06-12T23:12:59.263Z,77.50
2017-06-12T23:15:27.639Z,77.20
2017-06-12T23:17:55.777Z,77.10
2017-06-12T23:20:23.929Z,77.60
2017-06-12T23:22:57.802Z,78.00
2017-06-12T23:25:25.977Z,77.90
2017-06-12T23:27:54.121Z,77.90
2017-06-12T23:30:22.323Z,77.90
2017-06-12T23:32:50.471Z,77.70
2017-06-12T23:35:19.380Z,77.80
2017-06-12T23:37:47.535Z,77.60
2017-06-12T23:40:15.649Z,78.00
2017-06-12T23:42:44.733Z,77.80
2017-06-12T23:45:13.447Z,77.80
2017-06-12T23:47:41.598Z,78.00
2017-06-12T23:50:09.756Z,77.70
2017-06-12T23:52:37.930Z,77.80
2017-06-12T23:55:06.170Z,77.80
2017-06-12T23:57:34.329Z,77.80
